sensor_id;sensor_type;location;lat;lon;timestamp;temperature;humidity
4366;DHT22;2196;47.422;9.656;2022-07-23T00:01:12;22.30;99.90
4366;DHT22;2196;47.422;9.656;2022-07-23T00:03:39;22.30;99.90
4366;DHT22;2196;47.422;9.656;2022-07-23T00:06:06;22.40;99.90
4366;DHT22;2196;47.422;9.656;2022-07-23T00:08:34;22.40;99.90
4366;DHT22;2196;47.422;9.656;2022-07-23T00:11:01;22.40;99.90
4366;DHT22;2196;47.422;9.656;2022-07-23T00:13:28;22.40;99.90
4366;DHT22;2196;47.422;9.656;2022-07-23T00:15:56;22.40;99.90
4366;DHT22;2196;47.422;9.656;2022-07-23T00:18:28;22.50;99.90
4366;DHT22;2196;47.422;9.656;2022-07-23T00:20:55;22.50;99.90
4366;DHT22;2196;47.422;9.656;2022-07-23T00:23:26;22.50;99.90
4366;DHT22;2196;47.422;9.656;2022-07-23T00:25:55;22.40;99.90
4366;DHT22;2196;47.422;9.656;2022-07-23T00:28:24;22.30;99.90
4366;DHT22;2196;47.422;9.656;2022-07-23T00:30:51;22.10;99.90
4366;DHT22;2196;47.422;9.656;2022-07-23T00:33:19;21.90;99.90
4366;DHT22;2196;47.422;9.656;2022-07-23T00:35:46;21.70;99.90
4366;DHT22;2196;47.422;9.656;2022-07-23T00:38:13;21.80;99.90
4366;DHT22;2196;47.422;9.656;2022-07-23T00:40:40;21.70;99.90
4366;DHT22;2196;47.422;9.656;2022-07-23T00:43:08;21.70;99.90
4366;DHT22;2196;47.422;9.656;2022-07-23T00:45:35;21.60;99.90
4366;DHT22;2196;47.422;9.656;2022-07-23T00:48:03;21.50;99.90
4366;DHT22;2196;47.422;9.656;2022-07-23T00:50:30;21.40;99.90
4366;DHT22;2196;47.422;9.656;2022-07-23T00:52:57;21.40;99.90
4366;DHT22;2196;47.422;9.656;2022-07-23T00:55:24;21.40;99.90
4366;DHT22;2196;47.422;9.656;2022-07-23T00:57:53;21.50;99.90
4366;DHT22;2196;47.422;9.656;2022-07-23T01:00:23;21.40;99.90
4366;DHT22;2196;47.422;9.656;2022-07-23T01:02:50;21.30;99.90
4366;DHT22;2196;47.422;9.656;2022-07-23T01:05:18;21.30;99.90
4366;DHT22;2196;47.422;9.656;2022-07-23T01:07:47;21.20;99.90
4366;DHT22;2196;47.422;9.656;2022-07-23T01:10:15;21.00;99.90
4366;DHT22;2196;47.422;9.656;2022-07-23T01:12:58;21.00;99.90
4366;DHT22;2196;47.422;9.656;2022-07-23T01:15:27;20.90;99.90
4366;DHT22;2196;47.422;9.656;2022-07-23T01:17:54;20.80;99.90
4366;DHT22;2196;47.422;9.656;2022-07-23T01:20:22;20.70;99.90
4366;DHT22;2196;47.422;9.656;2022-07-23T01:22:50;20.80;99.90
4366;DHT22;2196;47.422;9.656;2022-07-23T01:25:18;21.00;99.90
4366;DHT22;2196;47.422;9.656;2022-07-23T01:27:45;21.00;99.90
4366;DHT22;2196;47.422;9.656;2022-07-23T01:30:13;21.10;99.90
4366;DHT22;2196;47.422;9.656;2022-07-23T01:32:40;21.20;99.90
4366;DHT22;2196;47.422;9.656;2022-07-23T01:35:08;21.10;99.90
4366;DHT22;2196;47.422;9.656;2022-07-23T01:37:36;21.00;99.90
4366;DHT22;2196;47.422;9.656;2022-07-23T01:40:05;21.00;99.90
4366;DHT22;2196;47.422;9.656;2022-07-23T01:42:33;21.00;99.90
4366;DHT22;2196;47.422;9.656;2022-07-23T01:45:02;21.00;99.90
4366;DHT22;2196;47.422;9.656;2022-07-23T01:47:29;20.80;99.90
4366;DHT22;2196;47.422;9.656;2022-07-23T01:49:56;20.80;99.90
4366;DHT22;2196;47.422;9.656;2022-07-23T01:52:23;20.90;99.90
4366;DHT22;2196;47.422;9.656;2022-07-23T01:54:50;20.80;99.90
4366;DHT22;2196;47.422;9.656;2022-07-23T01:57:19;20.70;99.90
4366;DHT22;2196;47.422;9.656;2022-07-23T01:59:46;20.60;99.90
4366;DHT22;2196;47.422;9.656;2022-07-23T02:02:13;20.60;99.90
4366;DHT22;2196;47.422;9.656;2022-07-23T02:04:39;20.60;99.90
4366;DHT22;2196;47.422;9.656;2022-07-23T02:07:06;20.50;99.90
4366;DHT22;2196;47.422;9.656;2022-07-23T02:09:33;20.40;99.90
4366;DHT22;2196;47.422;9.656;2022-07-23T02:12:01;20.40;99.90
4366;DHT22;2196;47.422;9.656;2022-07-23T02:14:29;20.40;99.90
4366;DHT22;2196;47.422;9.656;2022-07-23T02:16:56;20.40;99.90
4366;DHT22;2196;47.422;9.656;2022-07-23T02:19:23;20.40;99.90
4366;DHT22;2196;47.422;9.656;2022-07-23T02:21:51;20.40;99.90
4366;DHT22;2196;47.422;9.656;2022-07-23T02:24:18;20.40;99.90
4366;DHT22;2196;47.422;9.656;2022-07-23T02:26:44;20.40;99.90
4366;DHT22;2196;47.422;9.656;2022-07-23T02:29:11;20.30;99.90
4366;DHT22;2196;47.422;9.656;2022-07-23T02:31:40;20.30;99.90
4366;DHT22;2196;47.422;9.656;2022-07-23T02:34:07;20.20;99.90
4366;DHT22;2196;47.422;9.656;2022-07-23T02:36:37;20.30;99.90
4366;DHT22;2196;47.422;9.656;2022-07-23T02:39:04;20.30;99.90
4366;DHT22;2196;47.422;9.656;2022-07-23T02:41:31;20.30;99.90
4366;DHT22;2196;47.422;9.656;2022-07-23T02:43:58;20.30;99.90
4366;DHT22;2196;47.422;9.656;2022-07-23T02:46:24;20.40;99.90
4366;DHT22;2196;47.422;9.656;2022-07-23T02:48:53;20.30;99.90
4366;DHT22;2196;47.422;9.656;2022-07-23T02:51:20;20.30;99.90
4366;DHT22;2196;47.422;9.656;2022-07-23T02:53:47;20.30;99.90
4366;DHT22;2196;47.422;9.656;2022-07-23T02:56:14;20.30;99.90
4366;DHT22;2196;47.422;9.656;2022-07-23T02:58:41;20.30;99.90
4366;DHT22;2196;47.422;9.656;2022-07-23T03:01:08;20.40;99.90
4366;DHT22;2196;47.422;9.656;2022-07-23T03:03:35;20.40;99.90
4366;DHT22;2196;47.422;9.656;2022-07-23T03:06:03;20.40;99.90
4366;DHT22;2196;47.422;9.656;2022-07-23T03:08:30;20.40;99.90
4366;DHT22;2196;47.422;9.656;2022-07-23T03:10:57;20.50;99.90
4366;DHT22;2196;47.422;9.656;2022-07-23T03:13:24;20.40;99.90
4366;DHT22;2196;47.422;9.656;2022-07-23T03:15:51;20.40;99.90
4366;DHT22;2196;47.422;9.656;2022-07-23T03:18:18;20.40;99.90
4366;DHT22;2196;47.422;9.656;2022-07-23T03:20:45;20.40;99.90
4366;DHT22;2196;47.422;9.656;2022-07-23T03:23:13;20.40;99.90
4366;DHT22;2196;47.422;9.656;2022-07-23T03:25:40;20.40;99.90
4366;DHT22;2196;47.422;9.656;2022-07-23T03:28:07;20.40;99.90
4366;DHT22;2196;47.422;9.656;2022-07-23T03:30:34;20.40;99.90
4366;DHT22;2196;47.422;9.656;2022-07-23T03:33:01;20.40;99.90
4366;DHT22;2196;47.422;9.656;2022-07-23T03:35:28;20.40;99.90
4366;DHT22;2196;47.422;9.656;2022-07-23T03:37:55;20.50;99.90
4366;DHT22;2196;47.422;9.656;2022-07-23T03:40:23;20.40;99.90
4366;DHT22;2196;47.422;9.656;2022-07-23T03:42:50;20.60;99.90
4366;DHT22;2196;47.422;9.656;2022-07-23T03:45:17;20.60;99.90
4366;DHT22;2196;47.422;9.656;2022-07-23T03:47:44;20.70;99.90
4366;DHT22;2196;47.422;9.656;2022-07-23T03:50:11;20.70;99.90
4366;DHT22;2196;47.422;9.656;2022-07-23T03:52:38;20.70;99.90
4366;DHT22;2196;47.422;9.656;2022-07-23T03:55:07;20.80;99.90
4366;DHT22;2196;47.422;9.656;2022-07-23T03:57:35;20.70;99.90
4366;DHT22;2196;47.422;9.656;2022-07-23T04:00:04;20.60;99.90
4366;DHT22;2196;47.422;9.656;2022-07-23T04:02:32;20.60;99.90
4366;DHT22;2196;47.422;9.656;2022-07-23T04:04:59;20.60;99.90
4366;DHT22;2196;47.422;9.656;2022-07-23T04:07:26;20.70;99.90
4366;DHT22;2196;47.422;9.656;2022-07-23T04:09:53;20.70;99.90
4366;DHT22;2196;47.422;9.656;2022-07-23T04:12:20;20.70;99.90
4366;DHT22;2196;47.422;9.656;2022-07-23T04:14:48;20.70;99.90
4366;DHT22;2196;47.422;9.656;2022-07-23T04:17:16;20.70;99.90
4366;DHT22;2196;47.422;9.656;2022-07-23T04:19:43;20.80;99.90
4366;DHT22;2196;47.422;9.656;2022-07-23T04:22:10;20.90;99.90
4366;DHT22;2196;47.422;9.656;2022-07-23T04:24:38;20.90;99.90
4366;DHT22;2196;47.422;9.656;2022-07-23T04:27:05;21.00;99.90
4366;DHT22;2196;47.422;9.656;2022-07-23T04:29:32;20.90;99.90
4366;DHT22;2196;47.422;9.656;2022-07-23T04:32:00;21.00;99.90
4366;DHT22;2196;47.422;9.656;2022-07-23T04:34:28;20.90;99.90
4366;DHT22;2196;47.422;9.656;2022-07-23T04:36:55;20.90;99.90
4366;DHT22;2196;47.422;9.656;2022-07-23T04:39:22;20.80;99.90
4366;DHT22;2196;47.422;9.656;2022-07-23T04:41:48;20.70;99.90
4366;DHT22;2196;47.422;9.656;2022-07-23T04:44:15;20.70;99.90
4366;DHT22;2196;47.422;9.656;2022-07-23T04:46:42;20.50;99.90
4366;DHT22;2196;47.422;9.656;2022-07-23T04:49:14;20.50;99.90
4366;DHT22;2196;47.422;9.656;2022-07-23T04:51:41;20.40;99.90
4366;DHT22;2196;47.422;9.656;2022-07-23T04:54:08;20.30;99.90
4366;DHT22;2196;47.422;9.656;2022-07-23T04:56:35;20.30;99.90
4366;DHT22;2196;47.422;9.656;2022-07-23T04:59:02;20.30;99.90
4366;DHT22;2196;47.422;9.656;2022-07-23T05:01:29;20.30;99.90
4366;DHT22;2196;47.422;9.656;2022-07-23T05:03:56;20.40;99.90
4366;DHT22;2196;47.422;9.656;2022-07-23T05:06:25;20.30;99.90
4366;DHT22;2196;47.422;9.656;2022-07-23T05:08:52;20.30;99.90
4366;DHT22;2196;47.422;9.656;2022-07-23T05:11:21;20.30;99.90
4366;DHT22;2196;47.422;9.656;2022-07-23T05:13:50;20.40;99.90
4366;DHT22;2196;47.422;9.656;2022-07-23T05:16:18;20.60;99.90
4366;DHT22;2196;47.422;9.656;2022-07-23T05:18:46;20.60;99.90
4366;DHT22;2196;47.422;9.656;2022-07-23T05:21:13;20.70;99.90
4366;DHT22;2196;47.422;9.656;2022-07-23T05:23:41;20.80;99.90
4366;DHT22;2196;47.422;9.656;2022-07-23T05:26:08;20.80;99.90
4366;DHT22;2196;47.422;9.656;2022-07-23T05:28:35;20.90;99.90
4366;DHT22;2196;47.422;9.656;2022-07-23T05:31:02;21.00;99.90
4366;DHT22;2196;47.422;9.656;2022-07-23T05:33:29;21.00;99.90
4366;DHT22;2196;47.422;9.656;2022-07-23T05:36:00;21.10;99.90
4366;DHT22;2196;47.422;9.656;2022-07-23T05:38:28;21.10;99.90
4366;DHT22;2196;47.422;9.656;2022-07-23T05:40:57;21.00;99.90
4366;DHT22;2196;47.422;9.656;2022-07-23T05:43:24;21.10;99.90
4366;DHT22;2196;47.422;9.656;2022-07-23T05:45:51;21.10;99.90
4366;DHT22;2196;47.422;9.656;2022-07-23T05:48:18;21.10;99.90
4366;DHT22;2196;47.422;9.656;2022-07-23T05:50:45;21.10;99.90
4366;DHT22;2196;47.422;9.656;2022-07-23T05:53:12;21.20;99.90
4366;DHT22;2196;47.422;9.656;2022-07-23T05:55:39;21.20;99.90
4366;DHT22;2196;47.422;9.656;2022-07-23T05:58:07;21.30;99.90
4366;DHT22;2196;47.422;9.656;2022-07-23T06:00:34;21.50;99.90
4366;DHT22;2196;47.422;9.656;2022-07-23T06:03:02;21.70;99.90
4366;DHT22;2196;47.422;9.656;2022-07-23T06:05:29;22.10;99.90
4366;DHT22;2196;47.422;9.656;2022-07-23T06:07:56;22.40;99.90
4366;DHT22;2196;47.422;9.656;2022-07-23T06:10:23;22.70;99.90
4366;DHT22;2196;47.422;9.656;2022-07-23T06:12:50;23.00;99.90
4366;DHT22;2196;47.422;9.656;2022-07-23T06:15:18;23.50;99.90
4366;DHT22;2196;47.422;9.656;2022-07-23T06:17:45;23.60;99.90
4366;DHT22;2196;47.422;9.656;2022-07-23T06:20:12;23.50;99.90
4366;DHT22;2196;47.422;9.656;2022-07-23T06:22:39;23.20;99.90
4366;DHT22;2196;47.422;9.656;2022-07-23T06:25:07;23.00;99.90
4366;DHT22;2196;47.422;9.656;2022-07-23T06:27:34;22.90;99.90
4366;DHT22;2196;47.422;9.656;2022-07-23T06:30:02;22.80;99.90
4366;DHT22;2196;47.422;9.656;2022-07-23T06:32:30;22.60;99.90
4366;DHT22;2196;47.422;9.656;2022-07-23T06:34:57;22.50;99.90
4366;DHT22;2196;47.422;9.656;2022-07-23T06:37:24;22.50;99.90
4366;DHT22;2196;47.422;9.656;2022-07-23T06:39:51;22.50;99.90
4366;DHT22;2196;47.422;9.656;2022-07-23T06:42:18;22.60;99.90
4366;DHT22;2196;47.422;9.656;2022-07-23T06:44:45;22.60;99.90
4366;DHT22;2196;47.422;9.656;2022-07-23T06:47:12;22.60;99.90
4366;DHT22;2196;47.422;9.656;2022-07-23T06:49:40;22.60;99.90
4366;DHT22;2196;47.422;9.656;2022-07-23T06:52:07;22.90;99.90
4366;DHT22;2196;47.422;9.656;2022-07-23T06:54:34;22.90;99.90
4366;DHT22;2196;47.422;9.656;2022-07-23T06:57:01;22.80;99.90
4366;DHT22;2196;47.422;9.656;2022-07-23T06:59:28;22.80;99.90
4366;DHT22;2196;47.422;9.656;2022-07-23T07:01:55;22.70;99.90
4366;DHT22;2196;47.422;9.656;2022-07-23T07:04:23;22.50;99.90
4366;DHT22;2196;47.422;9.656;2022-07-23T07:06:51;22.50;99.90
4366;DHT22;2196;47.422;9.656;2022-07-23T07:09:18;22.40;99.90
4366;DHT22;2196;47.422;9.656;2022-07-23T07:11:45;22.30;99.90
4366;DHT22;2196;47.422;9.656;2022-07-23T07:14:12;22.20;99.90
4366;DHT22;2196;47.422;9.656;2022-07-23T07:16:39;22.00;99.90
4366;DHT22;2196;47.422;9.656;2022-07-23T07:19:06;21.90;99.90
4366;DHT22;2196;47.422;9.656;2022-07-23T07:21:33;21.90;99.90
4366;DHT22;2196;47.422;9.656;2022-07-23T07:24:02;21.90;99.90
4366;DHT22;2196;47.422;9.656;2022-07-23T07:26:30;21.80;99.90
4366;DHT22;2196;47.422;9.656;2022-07-23T07:28:57;21.70;99.90
4366;DHT22;2196;47.422;9.656;2022-07-23T07:31:24;21.60;99.90
4366;DHT22;2196;47.422;9.656;2022-07-23T07:33:51;21.60;99.90
4366;DHT22;2196;47.422;9.656;2022-07-23T07:36:18;21.60;99.90
4366;DHT22;2196;47.422;9.656;2022-07-23T07:38:45;21.60;99.90
4366;DHT22;2196;47.422;9.656;2022-07-23T07:41:14;21.60;99.90
4366;DHT22;2196;47.422;9.656;2022-07-23T07:43:41;21.30;99.90
4366;DHT22;2196;47.422;9.656;2022-07-23T07:46:08;21.40;99.90
4366;DHT22;2196;47.422;9.656;2022-07-23T07:48:36;21.30;99.90
4366;DHT22;2196;47.422;9.656;2022-07-23T07:51:04;21.30;99.90
4366;DHT22;2196;47.422;9.656;2022-07-23T07:53:31;21.40;99.90
4366;DHT22;2196;47.422;9.656;2022-07-23T07:55:58;21.30;99.90
4366;DHT22;2196;47.422;9.656;2022-07-23T07:58:26;21.30;99.90
4366;DHT22;2196;47.422;9.656;2022-07-23T08:00:53;21.40;99.90
4366;DHT22;2196;47.422;9.656;2022-07-23T08:03:23;21.40;99.90
4366;DHT22;2196;47.422;9.656;2022-07-23T08:05:50;21.40;99.90
4366;DHT22;2196;47.422;9.656;2022-07-23T08:08:17;21.50;99.90
4366;DHT22;2196;47.422;9.656;2022-07-23T08:10:44;21.40;99.90
4366;DHT22;2196;47.422;9.656;2022-07-23T08:13:13;21.40;99.90
4366;DHT22;2196;47.422;9.656;2022-07-23T08:15:43;21.40;99.90
4366;DHT22;2196;47.422;9.656;2022-07-23T08:18:10;21.50;99.90
4366;DHT22;2196;47.422;9.656;2022-07-23T08:20:37;21.50;99.90
4366;DHT22;2196;47.422;9.656;2022-07-23T08:23:06;21.50;99.90
4366;DHT22;2196;47.422;9.656;2022-07-23T08:25:35;21.60;99.90
4366;DHT22;2196;47.422;9.656;2022-07-23T08:28:04;21.60;99.90
4366;DHT22;2196;47.422;9.656;2022-07-23T08:30:32;21.70;99.90
4366;DHT22;2196;47.422;9.656;2022-07-23T08:33:02;21.90;99.90
4366;DHT22;2196;47.422;9.656;2022-07-23T08:35:31;22.10;99.90
4366;DHT22;2196;47.422;9.656;2022-07-23T08:38:00;22.30;99.90
4366;DHT22;2196;47.422;9.656;2022-07-23T08:40:28;22.50;99.90
4366;DHT22;2196;47.422;9.656;2022-07-23T08:42:55;23.00;99.90
4366;DHT22;2196;47.422;9.656;2022-07-23T08:45:24;23.20;99.90
4366;DHT22;2196;47.422;9.656;2022-07-23T08:47:52;23.20;99.90
4366;DHT22;2196;47.422;9.656;2022-07-23T08:50:22;23.40;99.90
4366;DHT22;2196;47.422;9.656;2022-07-23T08:52:50;23.40;99.90
4366;DHT22;2196;47.422;9.656;2022-07-23T08:55:18;23.50;99.90
4366;DHT22;2196;47.422;9.656;2022-07-23T08:57:48;23.40;99.90
4366;DHT22;2196;47.422;9.656;2022-07-23T09:00:16;23.30;99.90
4366;DHT22;2196;47.422;9.656;2022-07-23T09:02:45;23.20;99.90
4366;DHT22;2196;47.422;9.656;2022-07-23T09:05:13;23.00;99.90
4366;DHT22;2196;47.422;9.656;2022-07-23T09:08:09;23.00;99.90
4366;DHT22;2196;47.422;9.656;2022-07-23T09:10:48;23.10;99.90
4366;DHT22;2196;47.422;9.656;2022-07-23T09:13:29;23.00;99.90
4366;DHT22;2196;47.422;9.656;2022-07-23T09:15:57;23.10;99.90
4366;DHT22;2196;47.422;9.656;2022-07-23T09:18:29;23.00;99.90
4366;DHT22;2196;47.422;9.656;2022-07-23T09:21:06;23.00;99.90
4366;DHT22;2196;47.422;9.656;2022-07-23T09:23:42;23.00;99.90
4366;DHT22;2196;47.422;9.656;2022-07-23T09:26:27;22.90;99.90
4366;DHT22;2196;47.422;9.656;2022-07-23T09:28:59;22.90;99.90
4366;DHT22;2196;47.422;9.656;2022-07-23T09:31:31;23.00;99.90
4366;DHT22;2196;47.422;9.656;2022-07-23T09:34:12;23.00;99.90
4366;DHT22;2196;47.422;9.656;2022-07-23T09:36:39;23.00;99.90
4366;DHT22;2196;47.422;9.656;2022-07-23T09:39:08;22.90;99.90
4366;DHT22;2196;47.422;9.656;2022-07-23T09:41:37;22.90;99.90
4366;DHT22;2196;47.422;9.656;2022-07-23T09:44:13;22.80;99.90
4366;DHT22;2196;47.422;9.656;2022-07-23T09:46:42;22.90;99.90
4366;DHT22;2196;47.422;9.656;2022-07-23T09:49:15;22.90;99.90
4366;DHT22;2196;47.422;9.656;2022-07-23T09:51:49;22.90;99.90
4366;DHT22;2196;47.422;9.656;2022-07-23T09:54:26;22.80;99.90
4366;DHT22;2196;47.422;9.656;2022-07-23T09:56:55;22.80;99.90
4366;DHT22;2196;47.422;9.656;2022-07-23T09:59:24;22.80;99.90
4366;DHT22;2196;47.422;9.656;2022-07-23T10:01:53;23.00;99.90
4366;DHT22;2196;47.422;9.656;2022-07-23T10:04:21;23.20;99.90
4366;DHT22;2196;47.422;9.656;2022-07-23T10:06:51;23.50;99.90
4366;DHT22;2196;47.422;9.656;2022-07-23T10:09:27;23.70;99.90
4366;DHT22;2196;47.422;9.656;2022-07-23T10:11:56;23.90;99.90
4366;DHT22;2196;47.422;9.656;2022-07-23T10:14:38;24.10;99.90
4366;DHT22;2196;47.422;9.656;2022-07-23T10:17:07;24.40;99.90
4366;DHT22;2196;47.422;9.656;2022-07-23T10:19:35;24.30;99.90
4366;DHT22;2196;47.422;9.656;2022-07-23T10:22:06;24.50;99.90
4366;DHT22;2196;47.422;9.656;2022-07-23T10:25:00;24.70;99.90
4366;DHT22;2196;47.422;9.656;2022-07-23T10:27:42;25.00;99.90
4366;DHT22;2196;47.422;9.656;2022-07-23T10:30:14;24.90;99.90
4366;DHT22;2196;47.422;9.656;2022-07-23T10:32:48;24.80;99.90
4366;DHT22;2196;47.422;9.656;2022-07-23T10:35:25;24.40;99.90
4366;DHT22;2196;47.422;9.656;2022-07-23T10:37:56;24.20;99.90
4366;DHT22;2196;47.422;9.656;2022-07-23T10:40:30;24.10;99.90
4366;DHT22;2196;47.422;9.656;2022-07-23T10:42:59;24.10;99.90
4366;DHT22;2196;47.422;9.656;2022-07-23T10:45:30;24.00;99.90
4366;DHT22;2196;47.422;9.656;2022-07-23T10:48:13;24.10;99.90
4366;DHT22;2196;47.422;9.656;2022-07-23T10:50:41;24.20;99.90
4366;DHT22;2196;47.422;9.656;2022-07-23T10:53:10;24.10;99.90
4366;DHT22;2196;47.422;9.656;2022-07-23T10:55:43;24.10;99.90
4366;DHT22;2196;47.422;9.656;2022-07-23T10:58:11;24.20;99.90
4366;DHT22;2196;47.422;9.656;2022-07-23T11:00:43;24.50;99.90
4366;DHT22;2196;47.422;9.656;2022-07-23T11:03:29;24.70;99.90
4366;DHT22;2196;47.422;9.656;2022-07-23T11:05:58;24.80;99.90
4366;DHT22;2196;47.422;9.656;2022-07-23T11:08:25;25.00;99.90
4366;DHT22;2196;47.422;9.656;2022-07-23T11:10:57;24.90;99.90
4366;DHT22;2196;47.422;9.656;2022-07-23T11:13:47;25.00;99.90
4366;DHT22;2196;47.422;9.656;2022-07-23T11:16:25;25.10;99.90
4366;DHT22;2196;47.422;9.656;2022-07-23T11:18:58;25.20;99.90
4366;DHT22;2196;47.422;9.656;2022-07-23T11:24:26;25.20;99.90
4366;DHT22;2196;47.422;9.656;2022-07-23T11:26:59;25.10;99.90
4366;DHT22;2196;47.422;9.656;2022-07-23T11:32:44;25.10;99.90
4366;DHT22;2196;47.422;9.656;2022-07-23T11:35:29;25.20;99.90
4366;DHT22;2196;47.422;9.656;2022-07-23T11:38:06;25.40;99.90
4366;DHT22;2196;47.422;9.656;2022-07-23T11:40:35;25.80;99.90
4366;DHT22;2196;47.422;9.656;2022-07-23T11:43:05;25.80;99.90
4366;DHT22;2196;47.422;9.656;2022-07-23T11:45:34;25.80;99.90
4366;DHT22;2196;47.422;9.656;2022-07-23T11:48:02;25.90;99.90
4366;DHT22;2196;47.422;9.656;2022-07-23T11:50:30;25.30;99.90
4366;DHT22;2196;47.422;9.656;2022-07-23T11:52:57;25.00;99.90
4366;DHT22;2196;47.422;9.656;2022-07-23T11:55:25;24.60;99.90
4366;DHT22;2196;47.422;9.656;2022-07-23T11:57:54;24.70;99.90
4366;DHT22;2196;47.422;9.656;2022-07-23T12:00:25;24.80;99.90
4366;DHT22;2196;47.422;9.656;2022-07-23T12:02:55;24.80;99.90
4366;DHT22;2196;47.422;9.656;2022-07-23T12:05:26;25.00;99.90
4366;DHT22;2196;47.422;9.656;2022-07-23T12:07:54;25.20;99.90
4366;DHT22;2196;47.422;9.656;2022-07-23T12:10:24;25.00;99.90
4366;DHT22;2196;47.422;9.656;2022-07-23T12:12:53;25.00;99.90
4366;DHT22;2196;47.422;9.656;2022-07-23T12:15:23;25.20;99.90
4366;DHT22;2196;47.422;9.656;2022-07-23T12:17:52;25.50;99.90
4366;DHT22;2196;47.422;9.656;2022-07-23T12:20:22;25.80;99.90
4366;DHT22;2196;47.422;9.656;2022-07-23T12:22:50;25.90;99.90
4366;DHT22;2196;47.422;9.656;2022-07-23T12:25:19;25.90;99.90
4366;DHT22;2196;47.422;9.656;2022-07-23T12:27:59;25.70;99.90
4366;DHT22;2196;47.422;9.656;2022-07-23T12:30:31;25.20;99.90
4366;DHT22;2196;47.422;9.656;2022-07-23T12:32:59;25.20;99.90
4366;DHT22;2196;47.422;9.656;2022-07-23T12:35:32;25.30;99.90
4366;DHT22;2196;47.422;9.656;2022-07-23T12:38:01;25.50;99.90
4366;DHT22;2196;47.422;9.656;2022-07-23T12:40:30;25.50;99.90
4366;DHT22;2196;47.422;9.656;2022-07-23T12:43:00;25.70;99.90
4366;DHT22;2196;47.422;9.656;2022-07-23T12:45:44;26.00;99.90
4366;DHT22;2196;47.422;9.656;2022-07-23T12:48:20;26.10;99.90
4366;DHT22;2196;47.422;9.656;2022-07-23T12:50:53;26.00;99.90
4366;DHT22;2196;47.422;9.656;2022-07-23T12:53:26;25.90;99.90
4366;DHT22;2196;47.422;9.656;2022-07-23T12:56:00;25.90;99.90
4366;DHT22;2196;47.422;9.656;2022-07-23T12:58:39;26.10;99.90
4366;DHT22;2196;47.422;9.656;2022-07-23T13:01:09;25.90;99.90
4366;DHT22;2196;47.422;9.656;2022-07-23T13:03:38;25.80;99.90
4366;DHT22;2196;47.422;9.656;2022-07-23T13:06:08;25.70;99.90
4366;DHT22;2196;47.422;9.656;2022-07-23T13:08:37;25.50;99.90
4366;DHT22;2196;47.422;9.656;2022-07-23T13:11:05;25.30;99.90
4366;DHT22;2196;47.422;9.656;2022-07-23T13:13:34;25.50;99.90
4366;DHT22;2196;47.422;9.656;2022-07-23T13:16:02;25.60;99.90
4366;DHT22;2196;47.422;9.656;2022-07-23T13:18:30;25.80;99.90
4366;DHT22;2196;47.422;9.656;2022-07-23T13:20:58;25.90;99.90
4366;DHT22;2196;47.422;9.656;2022-07-23T13:23:28;26.00;99.90
4366;DHT22;2196;47.422;9.656;2022-07-23T13:25:55;26.10;99.90
4366;DHT22;2196;47.422;9.656;2022-07-23T13:28:23;26.20;99.90
4366;DHT22;2196;47.422;9.656;2022-07-23T13:30:52;26.00;99.90
4366;DHT22;2196;47.422;9.656;2022-07-23T13:33:20;26.10;99.90
4366;DHT22;2196;47.422;9.656;2022-07-23T13:35:49;26.20;99.90
4366;DHT22;2196;47.422;9.656;2022-07-23T13:38:17;26.30;99.90
4366;DHT22;2196;47.422;9.656;2022-07-23T13:40:46;26.50;99.90
4366;DHT22;2196;47.422;9.656;2022-07-23T13:43:16;26.50;99.90
4366;DHT22;2196;47.422;9.656;2022-07-23T13:45:43;26.60;99.90
4366;DHT22;2196;47.422;9.656;2022-07-23T13:48:12;26.50;99.90
4366;DHT22;2196;47.422;9.656;2022-07-23T13:50:40;26.60;99.90
4366;DHT22;2196;47.422;9.656;2022-07-23T13:53:10;26.70;99.90
4366;DHT22;2196;47.422;9.656;2022-07-23T13:55:38;26.70;99.90
4366;DHT22;2196;47.422;9.656;2022-07-23T13:58:07;26.60;99.90
4366;DHT22;2196;47.422;9.656;2022-07-23T14:00:35;26.70;99.90
4366;DHT22;2196;47.422;9.656;2022-07-23T14:03:03;26.30;99.90
4366;DHT22;2196;47.422;9.656;2022-07-23T14:05:30;26.10;99.90
4366;DHT22;2196;47.422;9.656;2022-07-23T14:07:58;26.20;99.90
4366;DHT22;2196;47.422;9.656;2022-07-23T14:10:26;26.00;99.90
4366;DHT22;2196;47.422;9.656;2022-07-23T14:12:53;25.90;99.90
4366;DHT22;2196;47.422;9.656;2022-07-23T14:15:22;25.90;99.90
4366;DHT22;2196;47.422;9.656;2022-07-23T14:17:49;26.00;99.90
4366;DHT22;2196;47.422;9.656;2022-07-23T14:20:16;25.80;99.90
4366;DHT22;2196;47.422;9.656;2022-07-23T14:22:43;25.90;99.90
4366;DHT22;2196;47.422;9.656;2022-07-23T14:25:11;26.00;99.90
4366;DHT22;2196;47.422;9.656;2022-07-23T14:27:39;26.00;99.90
4366;DHT22;2196;47.422;9.656;2022-07-23T14:30:08;25.90;99.90
4366;DHT22;2196;47.422;9.656;2022-07-23T14:32:35;25.90;99.90
4366;DHT22;2196;47.422;9.656;2022-07-23T14:35:04;26.00;99.90
4366;DHT22;2196;47.422;9.656;2022-07-23T14:37:31;26.00;99.90
4366;DHT22;2196;47.422;9.656;2022-07-23T14:39:58;26.00;99.90
4366;DHT22;2196;47.422;9.656;2022-07-23T14:42:26;26.00;99.90
4366;DHT22;2196;47.422;9.656;2022-07-23T14:44:54;25.80;99.90
4366;DHT22;2196;47.422;9.656;2022-07-23T14:47:21;25.80;99.90
4366;DHT22;2196;47.422;9.656;2022-07-23T14:49:48;25.90;99.90
4366;DHT22;2196;47.422;9.656;2022-07-23T14:52:15;25.90;99.90
4366;DHT22;2196;47.422;9.656;2022-07-23T14:54:42;26.00;99.90
4366;DHT22;2196;47.422;9.656;2022-07-23T14:57:09;26.00;99.90
4366;DHT22;2196;47.422;9.656;2022-07-23T14:59:36;26.00;99.90
4366;DHT22;2196;47.422;9.656;2022-07-23T15:02:05;26.20;99.90
4366;DHT22;2196;47.422;9.656;2022-07-23T15:04:32;26.20;99.90
4366;DHT22;2196;47.422;9.656;2022-07-23T15:06:59;26.00;99.90
4366;DHT22;2196;47.422;9.656;2022-07-23T15:09:26;26.10;99.90
4366;DHT22;2196;47.422;9.656;2022-07-23T15:11:53;26.20;99.90
4366;DHT22;2196;47.422;9.656;2022-07-23T15:14:20;26.10;99.90
4366;DHT22;2196;47.422;9.656;2022-07-23T15:16:47;25.90;99.90
4366;DHT22;2196;47.422;9.656;2022-07-23T15:19:15;25.80;99.90
4366;DHT22;2196;47.422;9.656;2022-07-23T15:21:42;25.80;99.90
4366;DHT22;2196;47.422;9.656;2022-07-23T15:24:09;25.70;99.90
4366;DHT22;2196;47.422;9.656;2022-07-23T15:26:36;25.80;99.90
4366;DHT22;2196;47.422;9.656;2022-07-23T15:29:03;25.80;99.90
4366;DHT22;2196;47.422;9.656;2022-07-23T15:31:31;25.90;99.90
4366;DHT22;2196;47.422;9.656;2022-07-23T15:33:59;26.00;99.90
4366;DHT22;2196;47.422;9.656;2022-07-23T15:36:27;25.80;99.90
4366;DHT22;2196;47.422;9.656;2022-07-23T15:38:55;25.80;99.90
4366;DHT22;2196;47.422;9.656;2022-07-23T15:41:22;26.00;99.90
4366;DHT22;2196;47.422;9.656;2022-07-23T15:43:50;26.20;99.90
4366;DHT22;2196;47.422;9.656;2022-07-23T15:46:17;26.20;99.90
4366;DHT22;2196;47.422;9.656;2022-07-23T15:48:44;26.30;99.90
4366;DHT22;2196;47.422;9.656;2022-07-23T15:51:12;26.40;99.90
4366;DHT22;2196;47.422;9.656;2022-07-23T15:53:41;26.50;99.90
4366;DHT22;2196;47.422;9.656;2022-07-23T15:56:09;26.60;99.90
4366;DHT22;2196;47.422;9.656;2022-07-23T15:58:36;26.40;99.90
4366;DHT22;2196;47.422;9.656;2022-07-23T16:01:04;26.50;99.90
4366;DHT22;2196;47.422;9.656;2022-07-23T16:03:33;26.50;99.90
4366;DHT22;2196;47.422;9.656;2022-07-23T16:06:00;26.50;99.90
4366;DHT22;2196;47.422;9.656;2022-07-23T16:08:27;26.40;99.90
4366;DHT22;2196;47.422;9.656;2022-07-23T16:10:55;26.40;99.90
4366;DHT22;2196;47.422;9.656;2022-07-23T16:13:24;26.40;99.90
4366;DHT22;2196;47.422;9.656;2022-07-23T16:15:54;26.20;99.90
4366;DHT22;2196;47.422;9.656;2022-07-23T16:18:22;26.10;99.90